createdAt,value
2022-08-22T00:02:30.574Z,10.85
2022-08-22T00:02:45.527Z,5.35
2022-08-22T00:02:46.449Z,4.40
2022-08-22T00:02:55.327Z,6.60
2022-08-22T00:03:00.352Z,5.93
2022-08-22T00:03:02.260Z,6.10
2022-08-22T00:03:08.632Z,4.68
2022-08-22T00:03:11.472Z,5.40
2022-08-22T00:05:28.715Z,11.98
2022-08-22T00:08:10.623Z,11.93
2022-08-22T00:11:08.777Z,12.88
2022-08-22T00:14:00.065Z,13.15
2022-08-22T00:16:37.309Z,13.52
2022-08-22T00:19:25.757Z,13.88
2022-08-22T00:22:00.040Z,13.10
2022-08-22T00:25:01.294Z,13.77
2022-08-22T00:27:37.188Z,15.15
2022-08-22T00:30:15.909Z,15.73
2022-08-22T00:32:49.014Z,16.50
2022-08-22T00:38:00.000Z,18.90
2022-08-22T00:40:45.586Z,21.00
2022-08-22T00:43:12.644Z,22.05
2022-08-22T00:45:39.888Z,25.10
2022-08-22T00:48:41.420Z,25.05
2022-08-22T00:51:57.960Z,26.27
2022-08-22T00:54:38.613Z,26.25
2022-08-22T00:57:20.073Z,23.25
2022-08-22T01:00:07.460Z,27.17
2022-08-22T01:03:00.688Z,28.45
2022-08-22T01:05:38.866Z,25.58
2022-08-22T01:08:22.301Z,27.75
2022-08-22T01:11:04.600Z,27.08
2022-08-22T01:13:31.949Z,25.77
2022-08-22T01:16:44.644Z,24.08
2022-08-22T01:19:14.850Z,22.75
2022-08-22T01:22:13.950Z,22.95
2022-08-22T01:25:18.438Z,22.50
2022-08-22T01:28:27.515Z,23.25
2022-08-22T01:31:19.097Z,22.13
2022-08-22T01:34:13.867Z,24.60
2022-08-22T01:37:07.705Z,21.90
2022-08-22T01:39:49.127Z,22.65
2022-08-22T01:42:36.938Z,22.73
2022-08-22T01:45:27.420Z,21.65
2022-08-22T01:48:12.801Z,22.63
2022-08-22T01:50:43.854Z,22.58
2022-08-22T01:53:14.536Z,24.48
2022-08-22T01:56:00.180Z,27.35
2022-08-22T01:58:35.289Z,26.58
2022-08-22T02:01:40.725Z,28.33
2022-08-22T02:04:22.356Z,28.13
2022-08-22T02:07:14.406Z,27.42
2022-08-22T02:10:50.474Z,26.85
2022-08-22T02:13:36.402Z,27.27
2022-08-22T02:16:50.579Z,29.05
2022-08-22T02:19:17.848Z,29.42
2022-08-22T02:21:48.028Z,29.95
2022-08-22T02:24:33.128Z,31.80
2022-08-22T02:27:12.397Z,31.50
2022-08-22T02:29:48.864Z,30.40
2022-08-22T02:32:37.436Z,35.92
2022-08-22T02:35:13.083Z,36.05
2022-08-22T02:38:07.918Z,37.85
2022-08-22T02:40:58.984Z,42.75
2022-08-22T02:43:39.630Z,43.90
2022-08-22T02:46:25.167Z,44.67
2022-08-22T02:49:28.503Z,50.00
2022-08-22T02:52:17.453Z,47.85
2022-08-22T02:55:09.105Z,50.33
2022-08-22T02:58:05.511Z,55.33
2022-08-22T03:00:48.970Z,54.30
2022-08-22T03:03:21.983Z,52.88
2022-08-22T03:06:19.929Z,54.47
2022-08-22T03:09:14.479Z,52.67
2022-08-22T03:12:05.638Z,53.72
2022-08-22T03:14:41.489Z,53.78
2022-08-22T03:17:18.041Z,52.47
2022-08-22T03:19:55.261Z,53.28
2022-08-22T03:22:43.832Z,53.30
2022-08-22T03:25:34.237Z,50.85
2022-08-22T03:28:07.281Z,50.97
2022-08-22T03:33:35.604Z,50.47
2022-08-22T03:36:14.793Z,50.70
2022-08-22T03:39:14.959Z,50.22
2022-08-22T03:42:19.634Z,52.37
2022-08-22T03:45:07.460Z,51.33
2022-08-22T03:47:55.617Z,50.00
2022-08-22T03:50:31.941Z,49.10
2022-08-22T03:53:13.782Z,50.63
2022-08-22T03:56:05.258Z,49.45
2022-08-22T03:59:10.137Z,50.50
2022-08-22T04:02:31.497Z,51.05
2022-08-22T04:05:00.633Z,50.60
2022-08-22T04:08:03.390Z,52.63
2022-08-22T04:10:50.751Z,52.40
2022-08-22T04:13:47.059Z,52.03
2022-08-22T04:16:51.249Z,52.97
2022-08-22T04:19:45.851Z,50.65
2022-08-22T04:22:28.980Z,53.47
2022-08-22T04:25:12.953Z,52.75
2022-08-22T04:27:58.066Z,51.67
2022-08-22T04:30:49.989Z,51.67
2022-08-22T04:33:28.520Z,50.83
2022-08-22T04:36:20.475Z,51.13
2022-08-22T04:38:54.901Z,51.20
2022-08-22T04:41:28.919Z,52.45
2022-08-22T04:44:07.729Z,53.17
2022-08-22T04:47:02.871Z,53.00
2022-08-22T04:49:37.539Z,53.90
2022-08-22T04:52:16.724Z,52.33
2022-08-22T04:54:51.131Z,54.08
2022-08-22T04:57:42.923Z,52.67
2022-08-22T05:00:12.611Z,52.72
2022-08-22T05:02:49.167Z,53.15
2022-08-22T05:05:26.219Z,49.95
2022-08-22T05:07:58.606Z,51.97
2022-08-22T05:10:37.908Z,48.65
2022-08-22T05:13:15.319Z,50.10
2022-08-22T05:15:47.135Z,49.47
2022-08-22T05:18:36.518Z,50.55
2022-08-22T05:21:07.865Z,50.67
2022-08-22T05:23:55.813Z,50.17
2022-08-22T05:26:23.400Z,51.03
2022-08-22T05:28:56.628Z,53.35
2022-08-22T05:31:31.845Z,50.88
2022-08-22T05:34:13.775Z,51.85
2022-08-22T05:36:46.148Z,51.47
2022-08-22T05:39:27.978Z,52.28
2022-08-22T05:41:58.389Z,55.65
2022-08-22T05:44:30.776Z,53.90
2022-08-22T05:46:58.124Z,55.15
2022-08-22T05:49:47.206Z,53.38
2022-08-22T05:52:33.420Z,54.05
2022-08-22T05:55:35.664Z,53.60
2022-08-22T05:58:18.114Z,55.03
2022-08-22T06:00:53.697Z,55.07
2022-08-22T06:03:46.181Z,54.28
2022-08-22T06:06:18.576Z,54.75
2022-08-22T06:09:06.499Z,52.50
2022-08-22T06:11:52.034Z,52.80
2022-08-22T06:14:46.044Z,51.38
2022-08-22T06:17:20.382Z,50.22
2022-08-22T06:19:51.183Z,49.83
2022-08-22T06:22:26.031Z,47.25
2022-08-22T06:25:06.078Z,47.72
2022-08-22T06:27:34.624Z,47.63
2022-08-22T06:30:04.060Z,46.42
2022-08-22T06:32:59.298Z,46.05
2022-08-22T06:36:05.657Z,44.20
2022-08-22T06:38:53.435Z,45.28
2022-08-22T06:41:22.571Z,44.50
2022-08-22T06:43:54.748Z,45.25
2022-08-22T06:46:23.498Z,44.63
2022-08-22T06:49:01.586Z,45.42
2022-08-22T06:51:29.920Z,43.42
2022-08-22T06:54:01.877Z,44.35
2022-08-22T06:56:41.825Z,45.15
2022-08-22T06:59:14.974Z,41.88
2022-08-22T07:01:55.699Z,41.53
2022-08-22T07:04:26.770Z,42.63
2022-08-22T07:06:57.272Z,39.90
2022-08-22T07:09:40.548Z,40.13
2022-08-22T07:12:16.901Z,37.70
2022-08-22T07:14:51.433Z,37.60
2022-08-22T07:17:25.254Z,37.60
2022-08-22T07:20:18.515Z,36.13
2022-08-22T07:22:57.851Z,37.85
2022-08-22T07:25:26.272Z,38.70
2022-08-22T07:28:08.962Z,39.20
2022-08-22T07:31:11.306Z,38.88
2022-08-22T07:33:52.155Z,39.60
2022-08-22T07:36:38.654Z,40.47
2022-08-22T07:39:20.538Z,38.75
2022-08-22T07:42:00.693Z,40.22
2022-08-22T07:44:38.576Z,40.10
2022-08-22T07:47:17.921Z,40.03
2022-08-22T07:49:57.830Z,40.17
2022-08-22T07:52:26.438Z,40.92
2022-08-22T07:54:58.386Z,42.25
2022-08-22T07:57:28.688Z,40.80
2022-08-22T08:00:00.079Z,41.15
2022-08-22T08:02:28.467Z,41.65
2022-08-22T08:04:57.701Z,41.60
2022-08-22T08:07:29.155Z,42.97
2022-08-22T08:10:07.984Z,41.63
2022-08-22T08:12:56.141Z,41.58
2022-08-22T08:15:33.126Z,40.22
2022-08-22T08:18:05.582Z,39.65
2022-08-22T08:20:36.006Z,40.17
2022-08-22T08:23:07.363Z,40.05
2022-08-22T08:26:08.286Z,41.30
2022-08-22T08:28:42.847Z,42.30
2022-08-22T08:31:16.771Z,40.67
2022-08-22T08:33:48.009Z,41.45
2022-08-22T08:36:26.447Z,41.17
2022-08-22T08:42:05.486Z,39.97
2022-08-22T08:45:05.084Z,41.22
2022-08-22T08:47:50.949Z,41.03
2022-08-22T08:50:34.799Z,40.50
2022-08-22T08:53:25.011Z,39.97
2022-08-22T08:56:27.355Z,40.97
2022-08-22T08:58:54.595Z,40.25
2022-08-22T09:01:49.594Z,40.05
2022-08-22T09:04:27.778Z,41.80
2022-08-22T09:07:01.674Z,40.40
2022-08-22T09:09:43.923Z,43.47
2022-08-22T09:12:19.868Z,40.28
2022-08-22T09:18:19.907Z,43.42
2022-08-22T09:21:27.639Z,43.25
2022-08-22T09:24:20.342Z,43.60
2022-08-22T09:27:12.074Z,41.95
2022-08-22T09:29:54.581Z,38.53
2022-08-22T09:32:36.242Z,37.08
2022-08-22T09:35:32.438Z,35.75
2022-08-22T09:38:13.208Z,39.67
2022-08-22T09:41:00.190Z,42.38
2022-08-22T09:43:33.777Z,38.75
2022-08-22T09:46:31.585Z,37.80
2022-08-22T09:49:20.851Z,33.90
2022-08-22T09:52:15.140Z,33.22
2022-08-22T09:55:24.243Z,33.33
2022-08-22T09:58:40.674Z,32.63
2022-08-22T10:01:32.838Z,31.85
2022-08-22T10:04:22.057Z,30.80
2022-08-22T10:07:38.283Z,28.90
2022-08-22T10:10:39.468Z,27.45
2022-08-22T10:13:41.804Z,26.23
2022-08-22T10:16:14.936Z,27.15
2022-08-22T10:19:05.288Z,26.67
2022-08-22T10:21:48.364Z,22.63
2022-08-22T10:24:25.283Z,22.95
2022-08-22T10:27:02.092Z,18.48
2022-08-22T10:29:52.300Z,19.77
2022-08-22T10:32:44.772Z,21.88
2022-08-22T10:36:04.897Z,19.65
2022-08-22T10:38:44.193Z,20.92
2022-08-22T10:41:39.019Z,16.80
2022-08-22T10:44:10.953Z,15.32
2022-08-22T10:47:15.703Z,17.48
2022-08-22T10:50:12.874Z,15.48
2022-08-22T10:52:48.185Z,14.85
2022-08-22T10:55:24.559Z,13.07
2022-08-22T10:58:04.780Z,12.57
2022-08-22T11:00:54.453Z,11.55
2022-08-22T11:03:51.273Z,11.55
2022-08-22T11:06:50.505Z,11.18
2022-08-22T11:09:39.496Z,8.80
2022-08-22T11:12:35.104Z,10.13
2022-08-22T11:15:28.224Z,6.55
2022-08-22T11:18:16.309Z,6.50
2022-08-22T11:20:49.609Z,8.23
2022-08-22T11:23:34.877Z,7.35
2022-08-22T11:26:23.056Z,9.88
2022-08-22T11:29:41.179Z,10.07
2022-08-22T11:32:28.712Z,9.73
2022-08-22T11:35:24.115Z,8.82
2022-08-22T11:38:15.105Z,6.88
2022-08-22T11:40:55.756Z,7.30
2022-08-22T11:43:53.704Z,7.38
2022-08-22T11:46:35.502Z,5.50
2022-08-22T11:49:27.740Z,3.90
2022-08-22T11:52:20.076Z,3.60
2022-08-22T11:55:24.271Z,4.10
2022-08-22T11:57:59.172Z,7.68
2022-08-22T12:00:35.240Z,10.63
2022-08-22T12:03:55.674Z,12.68
2022-08-22T12:06:54.500Z,12.65
2022-08-22T12:10:13.749Z,10.60
2022-08-22T12:12:50.817Z,11.77
2022-08-22T12:15:48.991Z,12.60
2022-08-22T12:18:39.351Z,13.07
2022-08-22T12:21:38.573Z,11.57
2022-08-22T12:24:21.135Z,9.00
2022-08-22T12:27:12.820Z,9.13
2022-08-22T12:29:54.724Z,7.63
2022-08-22T12:32:57.454Z,7.55
2022-08-22T12:35:55.461Z,6.97
2022-08-22T12:38:36.025Z,5.97
2022-08-22T12:41:13.851Z,5.72
2022-08-22T12:44:28.738Z,4.65
2022-08-22T12:47:35.199Z,4.75
2022-08-22T12:50:17.525Z,4.05
2022-08-22T12:53:03.436Z,3.83
2022-08-22T12:55:52.137Z,3.47
2022-08-22T12:58:34.012Z,3.80
2022-08-22T13:01:07.208Z,3.55
2022-08-22T13:03:44.045Z,3.58
2022-08-22T13:06:50.013Z,3.45
2022-08-22T13:09:28.832Z,3.45
2022-08-22T13:12:24.926Z,3.30
2022-08-22T13:14:59.918Z,3.88
2022-08-22T13:17:28.085Z,3.22
2022-08-22T13:19:57.587Z,3.33
2022-08-22T13:22:29.143Z,3.22
2022-08-22T13:25:01.150Z,3.33
2022-08-22T13:27:51.121Z,3.50
2022-08-22T13:30:23.356Z,3.88
2022-08-22T13:32:55.145Z,3.47
2022-08-22T13:35:33.430Z,3.30
2022-08-22T13:38:12.509Z,3.40
2022-08-22T13:40:47.409Z,3.28
2022-08-22T13:43:21.240Z,3.63
2022-08-22T13:46:04.895Z,3.40
2022-08-22T13:49:00.885Z,3.30
2022-08-22T13:51:49.968Z,3.20
2022-08-22T13:55:04.631Z,3.10
2022-08-22T13:57:42.391Z,3.90
2022-08-22T14:00:35.898Z,3.22
2022-08-22T14:05:41.880Z,3.50
2022-08-22T14:08:21.548Z,3.72
2022-08-22T14:10:55.606Z,3.50
2022-08-22T14:13:36.777Z,3.70
2022-08-22T14:16:26.748Z,3.45
2022-08-22T14:18:58.800Z,4.53
2022-08-22T14:21:40.501Z,4.30
2022-08-22T14:24:18.928Z,4.70
2022-08-22T14:27:08.747Z,3.72
2022-08-22T14:29:50.240Z,3.53
2022-08-22T14:32:25.868Z,4.15
2022-08-22T14:35:23.109Z,3.72
2022-08-22T14:37:54.424Z,3.03
2022-08-22T14:40:32.940Z,3.60
2022-08-22T14:43:29.328Z,3.55
2022-08-22T14:46:03.686Z,4.20
2022-08-22T14:48:40.655Z,4.20
2022-08-22T14:51:26.560Z,3.80
2022-08-22T14:54:21.143Z,3.47
2022-08-22T14:56:52.183Z,4.10
2022-08-22T14:59:45.594Z,3.40
2022-08-22T15:02:28.262Z,3.00
2022-08-22T15:04:58.399Z,3.75
2022-08-22T15:07:32.503Z,3.45
2022-08-22T15:10:34.279Z,3.88
2022-08-22T15:13:07.885Z,4.28
2022-08-22T15:15:52.922Z,3.38
2022-08-22T15:18:28.345Z,3.50
2022-08-22T15:21:09.962Z,3.72
2022-08-22T15:23:45.353Z,4.53
2022-08-22T15:26:22.818Z,3.15
2022-08-22T15:28:58.024Z,4.47
2022-08-22T15:31:25.978Z,3.17
2022-08-22T15:34:06.654Z,4.22
2022-08-22T15:36:34.321Z,3.45
2022-08-22T15:39:28.443Z,4.65
2022-08-22T15:41:56.978Z,3.58
2022-08-22T15:44:32.645Z,3.92
2022-08-22T15:47:24.257Z,3.95
2022-08-22T15:50:08.572Z,3.47
2022-08-22T15:53:13.455Z,3.72
2022-08-22T15:56:05.472Z,4.18
2022-08-22T15:58:40.460Z,3.47
2022-08-22T16:01:23.978Z,3.50
2022-08-22T16:04:12.951Z,3.38
2022-08-22T16:06:54.017Z,3.42
2022-08-22T16:09:43.403Z,3.35
2022-08-22T16:12:31.835Z,3.58
2022-08-22T16:15:01.069Z,3.35
2022-08-22T16:17:30.907Z,3.25
2022-08-22T16:20:19.639Z,3.30
2022-08-22T16:22:56.852Z,3.50
2022-08-22T16:25:45.699Z,3.70
2022-08-22T16:28:56.972Z,3.42
2022-08-22T16:31:30.085Z,3.65
2022-08-22T16:34:19.061Z,3.20
2022-08-22T16:36:52.564Z,3.42
2022-08-22T16:39:22.522Z,3.60
2022-08-22T16:41:49.980Z,3.58
2022-08-22T16:44:28.867Z,3.75
2022-08-22T16:47:18.332Z,3.70
2022-08-22T16:49:51.661Z,3.55
2022-08-22T16:52:21.768Z,3.63
2022-08-22T16:54:51.433Z,3.70
2022-08-22T16:57:18.763Z,3.38
2022-08-22T17:00:12.209Z,3.55
2022-08-22T17:05:32.618Z,3.70
2022-08-22T17:08:29.490Z,3.33
2022-08-22T17:11:18.350Z,4.28
2022-08-22T17:14:23.544Z,4.32
2022-08-22T17:17:11.221Z,4.18
2022-08-22T17:20:02.033Z,4.07
2022-08-22T17:22:37.741Z,4.60
2022-08-22T17:25:17.006Z,4.53
2022-08-22T17:27:49.106Z,4.40
2022-08-22T17:30:42.394Z,4.27
2022-08-22T17:33:15.628Z,5.00
2022-08-22T17:35:58.886Z,4.80
2022-08-22T17:41:34.026Z,4.82
2022-08-22T17:44:17.901Z,4.30
2022-08-22T17:47:01.810Z,5.00
2022-08-22T17:49:41.429Z,5.13
2022-08-22T17:52:31.626Z,4.40
2022-08-22T17:55:04.581Z,4.80
2022-08-22T18:00:11.722Z,5.03
2022-08-22T18:02:55.895Z,4.70
2022-08-22T18:05:46.255Z,4.80
2022-08-22T18:09:13.503Z,4.80
2022-08-22T18:11:40.257Z,4.72
2022-08-22T18:14:38.477Z,4.95
2022-08-22T18:17:30.610Z,5.07
2022-08-22T18:20:46.069Z,5.72
2022-08-22T18:23:36.319Z,5.25
2022-08-22T18:26:38.484Z,5.00
2022-08-22T18:29:31.772Z,5.55
2022-08-22T18:32:28.496Z,4.95
2022-08-22T18:35:16.787Z,5.53
2022-08-22T18:37:55.662Z,5.47
2022-08-22T18:40:50.237Z,4.50
2022-08-22T18:43:24.260Z,5.15
2022-08-22T18:45:51.793Z,4.70
2022-08-22T18:48:59.354Z,4.45
2022-08-22T18:51:38.510Z,5.30
2022-08-22T18:54:07.056Z,4.70
2022-08-22T18:56:48.504Z,5.25
2022-08-22T18:59:25.042Z,5.40
2022-08-22T19:01:52.757Z,5.07
2022-08-22T19:04:31.567Z,5.13
2022-08-22T19:07:56.604Z,4.82
2022-08-22T19:10:29.817Z,5.25
2022-08-22T19:13:15.324Z,5.10
2022-08-22T19:15:57.193Z,4.95
2022-08-22T19:18:56.063Z,5.50
2022-08-22T19:21:44.792Z,6.95
2022-08-22T19:24:34.831Z,5.93
2022-08-22T19:27:10.607Z,5.30
2022-08-22T19:29:38.262Z,6.00
2022-08-22T19:32:12.951Z,5.70
2022-08-22T19:34:47.877Z,6.65
2022-08-22T19:37:30.455Z,6.50
2022-08-22T19:40:05.575Z,6.15
2022-08-22T19:42:36.759Z,6.55
2022-08-22T19:45:21.454Z,6.28
2022-08-22T19:48:13.885Z,6.78
2022-08-22T19:50:43.339Z,6.22
2022-08-22T19:53:48.096Z,6.65
2022-08-22T19:56:27.165Z,6.32
2022-08-22T19:59:05.906Z,6.90
2022-08-22T20:01:33.573Z,6.47
2022-08-22T20:04:22.010Z,6.63
2022-08-22T20:07:15.625Z,7.00
2022-08-22T20:09:59.681Z,6.85
2022-08-22T20:12:29.738Z,7.10
2022-08-22T20:14:57.451Z,6.22
2022-08-22T20:17:24.973Z,7.18
2022-08-22T20:23:07.128Z,7.45
2022-08-22T20:25:53.101Z,7.88
2022-08-22T20:28:29.804Z,7.22
2022-08-22T20:31:02.586Z,7.25
2022-08-22T20:33:36.993Z,7.95
2022-08-22T20:36:18.565Z,7.45
2022-08-22T20:39:01.949Z,8.00
2022-08-22T20:43:58.399Z,8.15
2022-08-22T20:46:57.997Z,8.52
2022-08-22T20:49:31.741Z,9.23
2022-08-22T20:52:06.028Z,9.27
2022-08-22T20:54:40.661Z,8.73
2022-08-22T20:57:18.328Z,10.02
2022-08-22T20:59:58.528Z,9.13
2022-08-22T21:02:35.596Z,10.38
2022-08-22T21:05:07.764Z,10.85
2022-08-22T21:07:47.246Z,9.77
2022-08-22T21:10:36.441Z,10.70
2022-08-22T21:13:17.359Z,10.52
2022-08-22T21:16:08.488Z,10.38
2022-08-22T21:18:42.025Z,11.55
2022-08-22T21:21:18.287Z,10.35
2022-08-22T21:23:50.495Z,11.50
2022-08-22T21:26:32.001Z,12.20
2022-08-22T21:29:03.641Z,11.35
2022-08-22T21:31:41.373Z,12.70
2022-08-22T21:34:15.182Z,13.23
2022-08-22T21:36:42.628Z,13.85
2022-08-22T21:39:37.989Z,15.30
2022-08-22T21:42:33.725Z,16.67
2022-08-22T21:45:04.042Z,15.68
2022-08-22T21:47:34.732Z,14.93
2022-08-22T21:50:26.156Z,16.30
2022-08-22T21:52:56.354Z,17.38
2022-08-22T21:55:26.445Z,23.70
2022-08-22T21:58:34.160Z,16.33
2022-08-22T22:01:28.177Z,16.48
2022-08-22T22:03:56.679Z,17.73
2022-08-22T22:06:24.153Z,18.02
2022-08-22T22:08:52.081Z,16.35
2022-08-22T22:11:20.033Z,16.83
2022-08-22T22:13:47.484Z,18.48
2022-08-22T22:16:22.399Z,18.38
2022-08-22T22:18:49.567Z,18.08
2022-08-22T22:21:17.080Z,16.98
2022-08-22T22:23:44.745Z,17.05
2022-08-22T22:26:12.414Z,18.45
2022-08-22T22:28:42.853Z,18.80
2022-08-22T22:31:10.613Z,17.25
2022-08-22T22:33:40.356Z,17.42
2022-08-22T22:36:21.572Z,17.27
2022-08-22T22:38:51.627Z,17.83
2022-08-22T22:41:20.384Z,17.83
2022-08-22T22:43:47.590Z,17.40
2022-08-22T22:46:15.300Z,16.70
2022-08-22T22:48:42.891Z,47.13
2022-08-22T22:51:11.611Z,31.02
2022-08-22T22:53:43.175Z,17.48
2022-08-22T22:56:14.407Z,17.50
2022-08-22T22:58:43.882Z,16.75
2022-08-22T23:01:18.825Z,17.38
2022-08-22T23:03:47.000Z,16.45
2022-08-22T23:06:20.905Z,16.65
2022-08-22T23:08:49.356Z,15.98
2022-08-22T23:11:22.376Z,16.50
2022-08-22T23:16:20.522Z,17.63
2022-08-22T23:18:48.271Z,18.17
2022-08-22T23:21:15.756Z,16.17
2022-08-22T23:23:43.116Z,16.88
2022-08-22T23:26:10.683Z,17.77
2022-08-22T23:28:38.264Z,17.35
2022-08-22T23:31:16.764Z,17.52
2022-08-22T23:33:45.858Z,17.70
2022-08-22T23:36:19.654Z,16.95
2022-08-22T23:38:47.435Z,17.52
2022-08-22T23:41:20.726Z,18.40
2022-08-22T23:43:50.717Z,17.73
2022-08-22T23:46:20.725Z,18.55
2022-08-22T23:48:48.222Z,18.73
2022-08-22T23:51:17.392Z,17.90
2022-08-22T23:53:50.485Z,16.83
2022-08-22T23:56:23.520Z,16.48
